Time;durP1;ratioP1;P1;durP2;ratioP2;P2;SDS_P1;SDS_P2;PMS_P1;PMS_P2;Temp;Humidity;BMP_temperature;BMP_pressure;BME280_temperature;BME280_humidity;BME280_pressure;Samples;Min_cycle;Max_cycle;Signal;HPM_P1;HPM_P2
2023/03/31 00:00:56;;;;;;;6.23;3.20;;;;;;;9.75;40.84;97049.69;5067080;28;20272;-75
2023/03/31 00:03:24;;;;;;;4.33;3.33;;;;;;;9.70;40.75;97057.69;5066565;28;20247;-77
2023/03/31 00:05:57;;;;;;;4.53;3.37;;;;;;;9.65;40.88;97067.38;5067481;28;20191;-77
2023/03/31 00:08:34;;;;;;;4.10;3.40;;;;;;;9.45;41.73;97058.75;5066321;28;20189;-76
2023/03/31 00:11:04;;;;;;;5.43;3.43;;;;;;;9.44;41.25;97057.03;5067346;28;20252;-77
2023/03/31 00:13:31;;;;;;;5.17;3.47;;;;;;;9.46;41.53;97061.25;5067020;28;20650;-73
2023/03/31 00:16:04;;;;;;;5.47;3.10;;;;;;;9.44;41.05;97055.31;5068392;28;20189;-75
2023/03/31 00:18:33;;;;;;;5.83;3.60;;;;;;;9.47;41.58;97067.28;5067572;28;20631;-76
2023/03/31 00:21:23;;;;;;;6.23;3.97;;;;;;;9.54;41.65;97066.94;5066180;28;20247;-74
2023/03/31 00:23:59;;;;;;;4.73;3.57;;;;;;;9.41;41.67;97057.19;5067503;28;20611;-73
2023/03/31 00:26:27;;;;;;;6.77;3.73;;;;;;;9.41;41.97;97052.03;5066343;28;20676;-75
2023/03/31 00:28:55;;;;;;;6.60;3.67;;;;;;;9.38;41.55;97063.31;5067161;28;20268;-75
2023/03/31 00:31:23;;;;;;;6.50;3.93;;;;;;;9.34;41.97;97056.59;5055310;28;20235;-75
2023/03/31 00:33:50;;;;;;;5.20;3.70;;;;;;;9.01;43.44;97063.09;5102372;28;20193;-74
2023/03/31 00:36:20;;;;;;;4.13;3.37;;;;;;;8.96;43.67;97052.13;5069243;28;20211;-74
2023/03/31 00:38:48;;;;;;;8.57;4.33;;;;;;;8.75;43.79;97040.03;5086058;28;20705;-76
2023/03/31 00:41:15;;;;;;;5.57;3.60;;;;;;;9.04;43.38;97034.59;5087244;28;20706;-74
2023/03/31 00:44:00;;;;;;;5.87;3.93;;;;;;;9.20;42.95;97022.72;5086352;28;20352;-77
2023/03/31 00:46:32;;;;;;;6.53;3.57;;;;;;;9.25;43.24;97025.97;5086486;28;20706;-74
2023/03/31 00:49:00;;;;;;;7.23;4.13;;;;;;;8.90;43.39;97021.38;5069086;28;20300;-77
2023/03/31 00:51:32;;;;;;;5.07;3.60;;;;;;;8.66;44.46;97035.22;5079310;28;20232;-77
2023/03/31 00:54:04;;;;;;;6.77;3.77;;;;;;;8.41;44.47;97017.25;5073825;28;20287;-74
2023/03/31 00:56:35;;;;;;;4.73;3.60;;;;;;;8.30;45.53;97008.25;5070157;28;20207;-74
2023/03/31 00:59:06;;;;;;;6.67;4.10;;;;;;;8.26;46.77;96994.63;5052723;28;20197;-75
2023/03/31 01:01:35;;;;;;;6.03;4.03;;;;;;;8.19;46.45;97009.44;5070871;28;20232;-76
2023/03/31 01:04:03;;;;;;;4.97;3.50;;;;;;;8.31;45.86;96986.69;5070011;28;20193;-73
2023/03/31 01:06:32;;;;;;;5.73;3.70;;;;;;;8.32;46.54;96985.81;5070867;28;20212;-73
2023/03/31 01:09:03;;;;;;;5.53;3.60;;;;;;;8.58;45.53;96995.97;5069550;28;20206;-75
2023/03/31 01:11:30;;;;;;;4.67;3.20;;;;;;;8.80;45.83;96987.31;5071535;28;20255;-75
2023/03/31 01:13:57;;;;;;;6.87;3.77;;;;;;;8.75;46.36;96994.41;5051914;28;20198;-73
2023/03/31 01:16:24;;;;;;;5.70;4.10;;;;;;;8.73;46.50;96990.22;5075948;28;20261;-74
2023/03/31 01:18:52;;;;;;;5.03;3.83;;;;;;;8.79;46.00;96985.66;5076361;28;20201;-75
2023/03/31 01:22:16;;;;;;;5.10;3.73;;;;;;;8.96;44.97;96987.56;5069602;28;20238;-74
2023/03/31 01:25:00;;;;;;;4.57;3.40;;;;;;;8.81;45.41;96977.84;4988663;28;20204;-74
2023/03/31 01:27:52;;;;;;;5.63;4.13;;;;;;;8.74;46.24;96978.97;4988831;28;21426;-76
2023/03/31 01:31:13;;;;;;;6.43;3.97;;;;;;;8.65;46.42;96976.75;5060961;28;20205;-73
2023/03/31 01:34:21;;;;;;;6.90;3.80;;;;;;;8.81;46.28;96967.50;4996738;28;20729;-72
2023/03/31 01:37:18;;;;;;;5.03;3.50;;;;;;;8.88;46.26;96974.13;5070353;28;20276;-75
2023/03/31 01:40:09;;;;;;;7.67;4.17;;;;;;;9.00;46.42;96968.47;5069310;28;20247;-77
2023/03/31 01:43:02;;;;;;;5.07;4.03;;;;;;;8.94;46.61;96953.22;5051432;28;20185;-75
2023/03/31 01:45:48;;;;;;;4.50;3.73;;;;;;;8.96;46.43;96957.38;5052429;28;20185;-76
2023/03/31 01:48:20;;;;;;;5.83;4.17;;;;;;;8.95;46.69;96960.88;5069142;28;20189;-78
2023/03/31 01:50:57;;;;;;;4.73;3.60;;;;;;;9.05;46.45;96948.44;5069868;28;20196;-78
2023/03/31 01:53:44;;;;;;;6.83;4.00;;;;;;;9.01;45.52;96939.13;5051840;28;20254;-76
2023/03/31 01:56:27;;;;;;;5.93;4.23;;;;;;;8.89;45.45;96932.75;5068679;28;20201;-76
2023/03/31 01:59:22;;;;;;;8.07;4.57;;;;;;;8.99;45.64;96944.38;5052036;28;20185;-77
2023/03/31 02:01:51;;;;;;;6.47;3.90;;;;;;;8.96;45.30;96941.88;5069679;28;20250;-76
2023/03/31 02:04:23;;;;;;;5.80;3.90;;;;;;;8.97;44.61;96942.75;5068870;28;20230;-76
2023/03/31 02:06:59;;;;;;;6.97;4.10;;;;;;;8.87;45.56;96936.28;5068945;28;20189;-78
2023/03/31 02:09:33;;;;;;;8.03;4.43;;;;;;;8.84;45.61;96934.66;5070194;28;20284;-77
2023/03/31 02:12:05;;;;;;;7.73;4.67;;;;;;;8.76;46.76;96916.06;5051805;28;20224;-75
2023/03/31 02:14:35;;;;;;;7.03;4.47;;;;;;;8.53;47.16;96920.47;5051188;28;20180;-77
2023/03/31 02:17:04;;;;;;;8.00;3.77;;;;;;;8.24;48.96;96930.13;5068860;28;20201;-76
2023/03/31 02:19:38;;;;;;;5.97;3.43;;;;;;;7.91;48.83;96928.81;5069439;28;20198;-76
2023/03/31 02:22:07;;;;;;;5.07;3.47;;;;;;;7.96;48.93;96919.19;5050258;28;20283;-76
2023/03/31 02:24:37;;;;;;;4.20;3.33;;;;;;;7.82;48.61;96911.13;5051509;28;20193;-77
2023/03/31 02:27:31;;;;;;;6.07;3.50;;;;;;;7.68;49.49;96918.53;5068412;28;20743;-77
2023/03/31 02:30:02;;;;;;;5.43;3.63;;;;;;;7.60;50.37;96915.41;5050611;28;20189;-77
2023/03/31 02:32:34;;;;;;;4.60;3.37;;;;;;;7.54;51.49;96909.63;5069238;28;20621;-77
2023/03/31 02:35:02;;;;;;;4.93;3.60;;;;;;;7.56;49.21;96911.25;5050256;28;20204;-75
2023/03/31 02:37:29;;;;;;;6.43;3.03;;;;;;;7.51;50.98;96909.72;5069219;28;20224;-76
2023/03/31 02:40:00;;;;;;;8.73;4.23;;;;;;;7.52;50.12;96911.41;5071436;28;20288;-77
2023/03/31 02:42:28;;;;;;;5.80;4.07;;;;;;;7.31;50.19;96905.28;5089189;28;20204;-78
2023/03/31 02:45:02;;;;;;;5.97;3.60;;;;;;;7.52;49.29;96922.56;5089166;28;20597;-78
2023/03/31 02:47:30;;;;;;;6.40;3.80;;;;;;;7.51;51.32;96931.19;5070258;28;20647;-78
2023/03/31 02:50:00;;;;;;;9.00;4.30;;;;;;;7.47;50.64;96928.75;5089117;28;20196;-77
2023/03/31 02:52:51;;;;;;;7.00;4.20;;;;;;;7.45;51.65;96927.97;5088064;28;20657;-77
2023/03/31 02:55:29;;;;;;;5.50;3.70;;;;;;;7.52;51.67;96930.28;5088945;28;20245;-77
2023/03/31 02:58:22;;;;;;;7.10;3.90;;;;;;;7.70;50.44;96921.03;5088930;28;20182;-78
2023/03/31 03:01:17;;;;;;;3.97;3.53;;;;;;;7.92;50.18;96904.72;5070226;28;20200;-78
2023/03/31 03:04:24;;;;;;;8.53;3.83;;;;;;;8.14;49.92;96897.84;5092148;28;20227;-77
2023/03/31 03:07:33;;;;;;;5.07;3.50;;;;;;;8.21;49.68;96889.00;5037377;28;20191;-78
2023/03/31 03:10:12;;;;;;;7.43;4.13;;;;;;;8.21;49.13;96889.00;5053530;28;20754;-79
2023/03/31 03:12:55;;;;;;;4.97;3.70;;;;;;;8.42;48.81;96902.81;5070661;28;20786;-76
2023/03/31 03:15:33;;;;;;;4.97;3.97;;;;;;;8.33;49.70;96900.59;5068333;28;20283;-76
2023/03/31 03:18:02;;;;;;;8.03;4.30;;;;;;;8.45;48.82;96913.00;5086314;28;20207;-77
2023/03/31 03:20:32;;;;;;;7.07;4.40;;;;;;;8.45;48.53;96902.69;5088442;28;20192;-76
2023/03/31 03:22:59;;;;;;;9.50;4.00;;;;;;;8.47;48.90;96916.38;5087436;28;20200;-75
2023/03/31 03:25:29;;;;;;;7.37;4.73;;;;;;;8.56;48.64;96915.16;5088346;28;20682;-77
2023/03/31 03:27:56;;;;;;;7.53;5.10;;;;;;;8.46;49.10;96895.78;5087802;28;20188;-77
2023/03/31 03:30:23;;;;;;;7.40;4.97;;;;;;;8.32;49.21;96901.50;5087925;28;20727;-77
2023/03/31 03:32:50;;;;;;;10.60;5.90;;;;;;;8.15;49.67;96904.72;5087984;28;20228;-77
2023/03/31 03:35:17;;;;;;;9.13;5.23;;;;;;;8.09;49.39;96884.31;5064167;28;20634;-76
2023/03/31 03:37:44;;;;;;;9.53;5.03;;;;;;;8.13;49.50;96908.25;5080296;28;20235;-74
2023/03/31 03:40:11;;;;;;;9.77;5.20;;;;;;;8.13;50.40;96916.81;5080324;28;20203;-75
2023/03/31 03:42:38;;;;;;;5.20;4.03;;;;;;;8.14;49.85;96908.16;5081333;28;20196;-74
2023/03/31 03:45:05;;;;;;;5.70;3.77;;;;;;;8.05;50.61;96907.69;5086517;28;20702;-75
2023/03/31 03:47:36;;;;;;;5.80;4.03;;;;;;;7.91;50.72;96915.94;5087725;28;20868;-76
2023/03/31 03:50:06;;;;;;;8.03;4.80;;;;;;;7.79;51.56;96916.38;5087879;28;20204;-76
2023/03/31 03:52:33;;;;;;;7.63;4.83;;;;;;;7.61;52.39;96874.97;5069052;28;20281;-76
2023/03/31 03:55:01;;;;;;;10.20;4.87;;;;;;;7.75;52.10;96919.16;5088158;28;20196;-74
2023/03/31 03:57:28;;;;;;;7.63;5.13;;;;;;;7.56;53.32;96908.69;5086650;28;20254;-72
2023/03/31 03:59:56;;;;;;;5.97;4.30;;;;;;;7.44;53.08;96916.81;5087736;28;20217;-73
2023/03/31 04:02:23;;;;;;;7.17;5.23;;;;;;;7.28;53.44;96903.66;5086750;28;20192;-73
2023/03/31 04:04:53;;;;;;;9.40;5.07;;;;;;;7.46;53.84;96909.88;5080760;28;20694;-73
2023/03/31 04:07:20;;;;;;;8.83;4.90;;;;;;;7.53;52.98;96900.19;5070818;28;20755;-75
2023/03/31 04:09:47;;;;;;;11.27;5.23;;;;;;;7.61;52.81;96908.47;5066373;28;20287;-73
2023/03/31 04:12:14;;;;;;;7.67;4.83;;;;;;;7.64;53.40;96901.50;5067136;28;20712;-75
2023/03/31 04:14:41;;;;;;;6.93;4.57;;;;;;;7.73;52.82;96916.63;5070024;28;20287;-74
2023/03/31 04:17:09;;;;;;;8.00;3.97;;;;;;;7.70;53.13;96913.31;5082852;28;20284;-77
2023/03/31 04:19:37;;;;;;;8.27;4.87;;;;;;;7.39;52.68;96851.75;5085953;28;20591;-74
2023/03/31 04:22:04;;;;;;;11.17;5.63;;;;;;;7.78;52.05;96901.00;5083848;28;20656;-74
2023/03/31 04:24:31;;;;;;;12.97;6.90;;;;;;;7.84;52.10;96903.34;5087336;28;20722;-73
2023/03/31 04:26:59;;;;;;;14.53;6.87;;;;;;;7.74;51.68;96886.53;5086096;28;20636;-74
2023/03/31 04:29:26;;;;;;;8.27;6.00;;;;;;;7.97;51.27;96910.56;5086944;28;20191;-74
2023/03/31 04:31:57;;;;;;;11.70;6.20;;;;;;;8.04;52.70;96901.69;5086042;28;20352;-75
2023/03/31 04:34:33;;;;;;;9.93;4.40;;;;;;;7.97;52.30;96889.94;5087327;28;20188;-76
2023/03/31 04:37:01;;;;;;;6.53;4.00;;;;;;;7.91;52.57;96890.16;5086380;28;20655;-73
2023/03/31 04:39:31;;;;;;;10.73;4.33;;;;;;;7.48;53.59;96882.31;5086805;28;20207;-74
2023/03/31 04:41:59;;;;;;;6.80;4.30;;;;;;;7.34;55.07;96897.44;5087036;28;20224;-74
2023/03/31 04:44:27;;;;;;;8.77;4.87;;;;;;;7.42;55.25;96894.59;5085799;28;20197;-77
2023/03/31 04:46:54;;;;;;;8.63;4.87;;;;;;;7.42;54.44;96900.56;5086966;28;20191;-74
2023/03/31 04:49:21;;;;;;;5.00;4.23;;;;;;;7.39;54.87;96903.28;5085663;28;20201;-76
2023/03/31 04:51:48;;;;;;;8.37;5.93;;;;;;;7.52;54.44;96898.53;5086881;28;20222;-76
2023/03/31 04:54:15;;;;;;;7.27;4.50;;;;;;;7.56;53.12;96906.09;5067732;28;20215;-73
2023/03/31 04:56:42;;;;;;;5.63;4.73;;;;;;;7.74;53.85;96907.16;5086394;28;20205;-73
2023/03/31 04:59:10;;;;;;;6.67;4.27;;;;;;;7.71;52.55;96896.94;5068664;28;20188;-73
2023/03/31 05:01:37;;;;;;;6.57;4.13;;;;;;;7.80;52.47;96886.31;5085965;28;20266;-73
2023/03/31 05:04:07;;;;;;;8.93;5.20;;;;;;;7.74;51.63;96881.38;5069893;28;20193;-78
2023/03/31 05:06:34;;;;;;;7.93;5.10;;;;;;;7.70;53.58;96883.25;5065495;28;20251;-77
2023/03/31 05:09:01;;;;;;;9.37;4.13;;;;;;;7.53;53.00;96892.47;5060836;28;20299;-76
2023/03/31 05:11:28;;;;;;;6.93;4.80;;;;;;;7.42;53.50;96849.06;5065515;28;20259;-76
2023/03/31 05:13:55;;;;;;;8.20;4.60;;;;;;;7.86;51.87;96881.75;5066367;28;20205;-73
2023/03/31 05:16:22;;;;;;;6.87;4.23;;;;;;;7.70;51.67;96844.59;5066461;28;20185;-78
2023/03/31 05:18:49;;;;;;;9.47;4.63;;;;;;;7.85;51.79;96874.91;5065814;28;20178;-72
2023/03/31 05:21:19;;;;;;;7.50;4.47;;;;;;;7.69;51.43;96862.66;5066190;28;20262;-75
2023/03/31 05:23:47;;;;;;;8.77;4.63;;;;;;;7.69;51.33;96853.19;5047296;28;20205;-76
2023/03/31 05:26:14;;;;;;;7.20;4.20;;;;;;;7.71;51.20;96866.88;5066233;28;20249;-76
2023/03/31 05:28:41;;;;;;;5.77;3.70;;;;;;;7.71;49.87;96866.88;5065358;28;20684;-73
2023/03/31 05:31:10;;;;;;;7.37;3.60;;;;;;;7.60;49.30;96855.28;5048258;28;20257;-75
2023/03/31 05:33:40;;;;;;;6.67;3.53;;;;;;;7.75;49.56;96865.84;5066047;28;20666;-74
2023/03/31 05:36:10;;;;;;;6.60;4.03;;;;;;;7.96;49.20;96865.03;5075189;28;20572;-76
2023/03/31 05:38:38;;;;;;;9.10;4.50;;;;;;;7.89;48.34;96811.22;5068304;28;20189;-76
2023/03/31 05:41:06;;;;;;;5.43;3.20;;;;;;;7.98;49.09;96814.25;5085528;28;20213;-75
2023/03/31 05:43:33;;;;;;;6.77;4.10;;;;;;;8.15;49.11;96853.13;5090401;28;20185;-73
2023/03/31 05:46:00;;;;;;;8.50;3.63;;;;;;;8.24;48.91;96846.78;5088976;28;20231;-75
2023/03/31 05:48:27;;;;;;;5.03;4.43;;;;;;;8.15;49.18;96847.97;5089661;28;20292;-74
2023/03/31 05:50:59;;;;;;;4.77;4.00;;;;;;;8.22;47.88;96835.69;5089587;28;20230;-72
2023/03/31 05:53:26;;;;;;;5.80;3.87;;;;;;;8.17;47.60;96837.59;5088936;28;20280;-73
2023/03/31 05:56:02;;;;;;;11.47;4.23;;;;;;;8.09;48.32;96853.38;5089955;28;20212;-73
2023/03/31 05:58:30;;;;;;;5.27;3.83;;;;;;;8.16;48.77;96849.63;5088700;28;20194;-73
2023/03/31 06:01:07;;;;;;;6.93;4.00;;;;;;;8.36;47.44;96866.94;5089639;28;20193;-74
2023/03/31 06:03:36;;;;;;;9.10;3.97;;;;;;;8.48;47.79;96858.72;5089139;28;20250;-72
2023/03/31 06:06:05;;;;;;;11.53;4.93;;;;;;;8.60;47.34;96859.94;5070614;28;20679;-75
2023/03/31 06:08:32;;;;;;;9.00;5.47;;;;;;;8.64;47.92;96875.25;5089161;28;20187;-76
2023/03/31 06:10:59;;;;;;;12.63;5.73;;;;;;;8.77;47.47;96868.69;5088296;28;20250;-76
2023/03/31 06:13:26;;;;;;;8.07;5.10;;;;;;;8.77;47.43;96862.69;5089452;28;20287;-77
2023/03/31 06:15:55;;;;;;;13.23;4.73;;;;;;;8.85;46.80;96851.13;5088303;28;20197;-76
2023/03/31 06:18:23;;;;;;;7.10;4.50;;;;;;;8.93;47.17;96861.13;5071100;28;20296;-79
2023/03/31 06:20:50;;;;;;;6.77;5.03;;;;;;;8.65;47.03;96830.47;5088695;28;20605;-73
2023/03/31 06:23:17;;;;;;;8.93;5.03;;;;;;;8.79;47.95;96851.41;5088699;28;20289;-77
2023/03/31 06:25:44;;;;;;;8.50;5.20;;;;;;;8.87;47.06;96858.81;5089263;28;20237;-72
2023/03/31 06:28:19;;;;;;;6.97;4.40;;;;;;;8.85;46.11;96843.38;5087976;28;20950;-76
2023/03/31 06:30:46;;;;;;;7.73;5.23;;;;;;;8.83;46.84;96857.25;5089138;28;20196;-77
2023/03/31 06:33:13;;;;;;;15.10;7.13;;;;;;;8.88;46.42;96850.19;5070037;28;20234;-75
2023/03/31 06:35:40;;;;;;;10.37;5.47;;;;;;;8.74;45.88;96853.31;5088896;28;20193;-77
2023/03/31 06:38:07;;;;;;;15.20;8.83;;;;;;;8.69;45.89;96850.09;5088428;28;20197;-73
2023/03/31 06:40:35;;;;;;;7.50;4.93;;;;;;;8.62;45.39;96840.91;5088125;28;20749;-75
2023/03/31 06:43:02;;;;;;;15.17;6.17;;;;;;;8.78;46.25;96843.69;5088910;28;20227;-74
2023/03/31 06:45:29;;;;;;;10.40;6.83;;;;;;;8.66;45.38;96811.50;5069592;28;20241;-76
2023/03/31 06:47:56;;;;;;;9.63;6.30;;;;;;;9.03;44.61;96834.84;5088539;28;20280;-75
2023/03/31 06:50:23;;;;;;;16.13;7.17;;;;;;;9.12;43.94;96836.22;5069396;28;20693;-75
2023/03/31 06:52:51;;;;;;;10.67;6.53;;;;;;;9.20;43.49;96828.97;5088469;28;20701;-75
2023/03/31 06:55:18;;;;;;;11.83;5.27;;;;;;;9.20;43.87;96830.69;5088039;28;20836;-73
2023/03/31 06:57:45;;;;;;;7.57;5.07;;;;;;;9.24;44.02;96827.91;5069593;28;20196;-74
2023/03/31 07:00:13;;;;;;;10.23;5.10;;;;;;;9.41;44.23;96846.13;5069826;28;20224;-73
2023/03/31 07:02:40;;;;;;;14.87;6.67;;;;;;;9.35;44.21;96838.63;5087076;28;20189;-75
2023/03/31 07:05:07;;;;;;;13.47;6.80;;;;;;;9.42;44.63;96845.19;5087917;28;20350;-73
2023/03/31 07:07:34;;;;;;;9.97;6.87;;;;;;;9.50;43.90;96837.94;5086815;28;20196;-74
2023/03/31 07:10:01;;;;;;;15.47;6.73;;;;;;;9.58;43.45;96837.59;5088048;28;20242;-74
2023/03/31 07:12:32;;;;;;;13.87;6.63;;;;;;;9.61;42.94;96843.47;5087256;28;20216;-74
2023/03/31 07:14:59;;;;;;;12.93;5.40;;;;;;;9.54;42.79;96816.22;5068836;28;20254;-76
2023/03/31 07:17:26;;;;;;;12.90;6.43;;;;;;;9.68;42.48;96838.88;5069170;28;20569;-74
2023/03/31 07:19:54;;;;;;;13.30;7.17;;;;;;;9.76;42.30;96837.63;5086975;28;20271;-77
2023/03/31 07:22:20;;;;;;;20.00;8.93;;;;;;;9.79;43.04;96832.28;5087126;28;20216;-75
2023/03/31 07:24:47;;;;;;;14.37;7.93;;;;;;;9.83;43.35;96833.81;5086507;28;20568;-79
2023/03/31 07:27:14;;;;;;;12.33;7.50;;;;;;;9.73;44.20;96829.13;5069001;28;20193;-76
2023/03/31 07:29:41;;;;;;;13.77;7.57;;;;;;;9.71;44.22;96838.72;5086422;28;20583;-74
2023/03/31 07:32:08;;;;;;;16.70;9.17;;;;;;;9.71;44.12;96833.53;5086958;28;20204;-74
2023/03/31 07:34:35;;;;;;;14.13;7.73;;;;;;;9.65;43.53;96803.66;5087383;28;20188;-75
2023/03/31 07:37:03;;;;;;;12.20;6.27;;;;;;;9.74;43.89;96813.56;5086257;28;20579;-75
2023/03/31 07:39:31;;;;;;;13.60;6.87;;;;;;;9.82;44.03;96826.13;5087422;28;20200;-73
2023/03/31 07:41:59;;;;;;;12.30;7.63;;;;;;;9.86;43.37;96827.69;5085797;28;20229;-74
2023/03/31 07:44:26;;;;;;;15.73;7.77;;;;;;;10.02;43.42;96814.84;5087558;28;20200;-74
2023/03/31 07:46:53;;;;;;;16.47;8.43;;;;;;;10.10;43.05;96812.78;5067921;28;20684;-76
2023/03/31 07:49:20;;;;;;;15.13;8.03;;;;;;;9.87;42.55;96789.72;5087026;28;20291;-74
2023/03/31 07:51:47;;;;;;;13.80;7.53;;;;;;;10.00;43.33;96788.22;5068761;28;20205;-75
2023/03/31 07:54:14;;;;;;;13.83;8.67;;;;;;;10.18;43.55;96797.75;5086090;28;20231;-75
2023/03/31 07:56:41;;;;;;;13.03;8.77;;;;;;;10.33;43.20;96795.25;5087430;28;20190;-75
2023/03/31 07:59:08;;;;;;;14.30;8.80;;;;;;;10.38;43.09;96807.97;5085945;28;20194;-76
2023/03/31 08:01:36;;;;;;;15.73;7.70;;;;;;;10.40;43.05;96799.22;5087041;28;20211;-72
2023/03/31 08:04:03;;;;;;;13.90;8.70;;;;;;;10.64;43.33;96794.56;5085424;28;20651;-77
2023/03/31 08:06:30;;;;;;;16.70;8.43;;;;;;;10.81;43.69;96786.78;5087037;28;20205;-76
2023/03/31 08:08:57;;;;;;;15.30;8.20;;;;;;;11.16;42.97;96774.63;5087287;28;20190;-76
2023/03/31 08:11:25;;;;;;;13.80;7.63;;;;;;;10.99;43.93;96767.72;5086221;28;20193;-76
2023/03/31 08:13:52;;;;;;;16.60;8.03;;;;;;;11.15;43.41;96759.97;5087127;28;20301;-76
2023/03/31 08:16:19;;;;;;;10.50;7.60;;;;;;;10.83;43.65;96771.16;5085565;28;20225;-76
2023/03/31 08:18:46;;;;;;;13.93;8.07;;;;;;;10.69;42.71;96774.47;5068613;28;20267;-79
2023/03/31 08:21:13;;;;;;;13.43;8.30;;;;;;;10.82;42.73;96761.75;5085668;28;20765;-75
2023/03/31 08:23:40;;;;;;;15.90;8.77;;;;;;;10.93;42.33;96772.38;5086582;28;20516;-73
2023/03/31 08:26:13;;;;;;;13.77;9.00;;;;;;;10.90;42.97;96788.91;5085851;28;20201;-78
2023/03/31 08:28:45;;;;;;;16.63;9.40;;;;;;;11.07;43.94;96769.91;5086031;28;20188;-77
2023/03/31 08:31:15;;;;;;;19.13;9.33;;;;;;;11.20;42.66;96752.81;5068728;28;20538;-73
2023/03/31 08:33:42;;;;;;;13.63;8.60;;;;;;;11.14;42.28;96691.78;5085390;28;20239;-74
2023/03/31 08:36:10;;;;;;;11.67;7.70;;;;;;;11.80;42.15;96753.88;5086736;28;20195;-77
2023/03/31 08:38:40;;;;;;;8.90;6.77;;;;;;;11.86;40.61;96762.16;5085848;28;20239;-74
2023/03/31 08:41:27;;;;;;;7.10;5.50;;;;;;;11.78;40.72;96751.38;5087298;28;20622;-74
2023/03/31 08:43:57;;;;;;;8.53;5.43;;;;;;;11.76;40.80;96749.78;5087884;28;20231;-74
2023/03/31 08:46:28;;;;;;;8.17;4.77;;;;;;;11.53;41.41;96734.59;5082286;28;20215;-74
2023/03/31 08:48:57;;;;;;;6.70;4.10;;;;;;;11.48;41.38;96736.63;5073881;28;20305;-74
2023/03/31 08:51:33;;;;;;;7.40;5.17;;;;;;;11.69;41.99;96722.50;5066481;28;20692;-74
2023/03/31 08:54:06;;;;;;;8.27;4.87;;;;;;;12.16;42.09;96718.06;5077698;28;20237;-73
2023/03/31 08:56:38;;;;;;;8.33;5.13;;;;;;;12.21;42.21;96722.09;5086467;28;20279;-74
2023/03/31 08:59:31;;;;;;;7.77;5.77;;;;;;;12.17;42.75;96715.41;5085710;28;20196;-73
2023/03/31 09:02:01;;;;;;;7.60;5.10;;;;;;;12.39;42.24;96715.00;5068640;28;20697;-77
2023/03/31 09:04:55;;;;;;;9.40;5.57;;;;;;;12.67;41.83;96709.03;5085326;28;20189;-74
2023/03/31 09:07:25;;;;;;;11.00;6.57;;;;;;;12.73;42.37;96704.31;5067758;28;20215;-73
2023/03/31 09:09:58;;;;;;;21.00;10.37;;;;;;;12.90;42.43;96698.91;5086243;28;20195;-78
2023/03/31 09:12:49;;;;;;;17.43;8.67;;;;;;;13.12;41.46;96687.25;5066670;28;20234;-73
2023/03/31 09:15:24;;;;;;;6.03;4.67;;;;;;;13.01;42.11;96677.47;5049413;28;20204;-73
2023/03/31 09:17:54;;;;;;;7.57;4.77;;;;;;;13.02;42.84;96669.56;5089501;28;20255;-74
2023/03/31 09:20:31;;;;;;;9.47;5.77;;;;;;;13.37;41.94;96682.22;5089623;28;20270;-74
2023/03/31 09:23:23;;;;;;;8.87;6.90;;;;;;;13.42;41.31;96678.38;5090088;28;20196;-75
2023/03/31 09:25:50;;;;;;;13.67;5.73;;;;;;;13.52;41.34;96674.28;5069852;28;20285;-77
2023/03/31 09:28:21;;;;;;;11.60;6.73;;;;;;;13.68;41.48;96685.38;5090239;28;20191;-73
2023/03/31 09:30:48;;;;;;;12.67;6.53;;;;;;;13.78;42.08;96673.47;5071108;28;20192;-75
2023/03/31 09:33:24;;;;;;;10.30;5.93;;;;;;;13.92;41.91;96651.75;5089486;28;20224;-74
2023/03/31 09:35:50;;;;;;;12.37;8.53;;;;;;;13.98;41.43;96656.53;5089607;28;20264;-74
2023/03/31 09:38:18;;;;;;;10.90;6.97;;;;;;;14.04;42.00;96645.72;5088735;28;20200;-78
2023/03/31 09:40:45;;;;;;;9.97;5.33;;;;;;;14.18;41.53;96661.28;5090179;28;20195;-76
2023/03/31 09:43:25;;;;;;;8.53;5.90;;;;;;;14.42;40.69;96653.66;5088786;28;20652;-78
2023/03/31 09:45:53;;;;;;;13.10;8.40;;;;;;;14.58;40.39;96657.72;5089573;28;20223;-78
2023/03/31 09:48:37;;;;;;;11.90;6.00;;;;;;;14.65;40.69;96645.94;5103147;28;20210;-74
2023/03/31 09:51:13;;;;;;;14.23;7.00;;;;;;;14.61;40.59;96626.22;5088696;28;20279;-75
2023/03/31 09:54:15;;;;;;;11.63;7.00;;;;;;;14.65;40.95;96642.50;5089474;28;20745;-76
2023/03/31 09:56:42;;;;;;;6.60;5.50;;;;;;;14.74;40.69;96635.81;5088439;28;20196;-76
2023/03/31 09:59:15;;;;;;;13.07;4.73;;;;;;;14.60;41.16;96627.19;5088838;28;20185;-74
2023/03/31 10:01:48;;;;;;;8.10;4.70;;;;;;;14.39;41.80;96619.97;5089381;28;20648;-74
2023/03/31 10:04:21;;;;;;;7.40;4.40;;;;;;;14.78;41.96;96616.41;5088201;28;20745;-75
2023/03/31 10:06:48;;;;;;;5.13;3.17;;;;;;;14.75;42.36;96612.28;5089219;28;20592;-74
2023/03/31 10:09:16;;;;;;;4.80;3.00;;;;;;;14.70;42.97;96609.13;5088114;28;20187;-74
2023/03/31 10:12:02;;;;;;;6.53;3.93;;;;;;;14.91;43.31;96606.81;5071071;28;20331;-77
2023/03/31 10:14:40;;;;;;;4.20;3.10;;;;;;;15.04;43.68;96610.25;5089143;28;20311;-77
2023/03/31 10:17:14;;;;;;;6.00;3.10;;;;;;;14.95;43.56;96600.44;5087499;28;20199;-75
2023/03/31 10:19:51;;;;;;;6.90;4.73;;;;;;;14.95;44.08;96593.47;5088907;28;20199;-74
2023/03/31 10:22:21;;;;;;;6.43;4.03;;;;;;;15.30;43.54;96589.19;5088034;28;20249;-74
2023/03/31 10:24:50;;;;;;;6.10;4.00;;;;;;;15.31;43.36;96587.41;5088787;28;20246;-74
2023/03/31 10:27:24;;;;;;;7.93;3.43;;;;;;;15.60;42.74;96586.16;5088000;28;20196;-75
2023/03/31 10:29:53;;;;;;;4.23;3.30;;;;;;;15.66;42.94;96574.47;5088128;28;20192;-74
2023/03/31 10:32:27;;;;;;;5.53;3.57;;;;;;;15.52;43.27;96572.03;5089587;28;20189;-77
2023/03/31 10:34:56;;;;;;;5.63;4.10;;;;;;;15.82;43.28;96575.81;5069284;28;20239;-78
2023/03/31 10:37:27;;;;;;;7.30;3.97;;;;;;;16.13;42.47;96563.94;5104462;28;20199;-78
2023/03/31 10:40:02;;;;;;;8.37;4.13;;;;;;;16.09;42.32;96565.91;5087958;28;20200;-74
2023/03/31 10:42:29;;;;;;;7.23;4.20;;;;;;;16.28;42.35;96560.97;5088239;28;20200;-73
2023/03/31 10:45:16;;;;;;;6.50;4.67;;;;;;;16.09;43.18;96558.06;5088410;28;20251;-77
2023/03/31 10:48:02;;;;;;;6.90;4.40;;;;;;;16.16;42.70;96533.16;5087457;28;20181;-74
2023/03/31 10:50:34;;;;;;;7.07;4.77;;;;;;;16.19;43.04;96564.31;5088468;28;20253;-76
2023/03/31 10:53:10;;;;;;;13.67;7.50;;;;;;;16.05;43.31;96548.00;5087924;28;20188;-76
2023/03/31 10:56:02;;;;;;;7.70;4.30;;;;;;;16.02;43.41;96562.13;5087709;28;20193;-76
2023/03/31 10:59:00;;;;;;;7.37;3.93;;;;;;;15.95;43.74;96563.50;5088369;28;20202;-74
2023/03/31 11:01:56;;;;;;;9.50;4.77;;;;;;;16.05;43.51;96559.25;5087311;28;20204;-77
2023/03/31 11:04:35;;;;;;;10.83;4.97;;;;;;;15.93;44.63;96552.34;5087505;28;20185;-72
2023/03/31 11:07:09;;;;;;;11.30;5.77;;;;;;;15.91;45.36;96548.22;5088419;28;20185;-77
2023/03/31 11:09:49;;;;;;;10.20;4.37;;;;;;;15.91;45.39;96533.34;5051964;28;20262;-74
2023/03/31 11:12:25;;;;;;;8.77;4.53;;;;;;;16.13;44.65;96532.56;5053305;28;20220;-73
2023/03/31 11:14:58;;;;;;;6.57;4.33;;;;;;;16.08;44.91;96526.84;5087963;28;20309;-74
2023/03/31 11:17:46;;;;;;;8.20;4.53;;;;;;;16.24;45.21;96529.97;5086860;28;20185;-76
2023/03/31 11:20:35;;;;;;;13.30;6.30;;;;;;;16.38;45.48;96524.53;5070077;28;20679;-76
2023/03/31 11:23:21;;;;;;;10.17;6.13;;;;;;;16.40;44.81;96511.34;5087126;28;20196;-78
2023/03/31 11:26:01;;;;;;;9.57;5.50;;;;;;;16.38;44.98;96513.25;5087345;28;20630;-74
2023/03/31 11:28:45;;;;;;;7.20;4.67;;;;;;;16.74;44.29;96505.16;5087875;28;20207;-73
2023/03/31 11:31:18;;;;;;;7.77;4.70;;;;;;;16.78;44.07;96490.91;5086434;28;20193;-75
2023/03/31 11:34:04;;;;;;;10.00;4.60;;;;;;;16.79;43.88;96503.88;5087675;28;20213;-74
2023/03/31 11:36:31;;;;;;;6.50;4.10;;;;;;;16.61;44.63;96504.47;5087379;28;20256;-76
2023/03/31 11:39:12;;;;;;;7.77;4.50;;;;;;;16.57;44.81;96490.00;5086147;28;20795;-78
2023/03/31 11:41:52;;;;;;;7.60;4.47;;;;;;;16.60;44.84;96497.56;5088142;28;20254;-74
2023/03/31 11:44:23;;;;;;;5.47;3.70;;;;;;;16.64;45.27;96491.16;5086685;28;20201;-76
2023/03/31 11:47:01;;;;;;;4.70;3.67;;;;;;;16.64;45.38;96484.16;5087249;28;20211;-78
2023/03/31 11:49:37;;;;;;;8.13;4.47;;;;;;;16.53;45.35;96467.63;5088898;28;20275;-76
2023/03/31 11:52:20;;;;;;;9.07;4.33;;;;;;;16.85;44.94;96479.00;5086652;28;20182;-78
2023/03/31 11:55:05;;;;;;;5.67;4.17;;;;;;;16.88;45.00;96469.13;5088077;28;20242;-77
2023/03/31 11:57:35;;;;;;;5.80;3.83;;;;;;;16.95;44.61;96472.09;5086235;28;20189;-77
2023/03/31 12:00:15;;;;;;;5.60;3.50;;;;;;;16.95;44.24;96451.16;5068848;28;20641;-75
2023/03/31 12:03:07;;;;;;;9.00;4.07;;;;;;;17.21;44.12;96465.56;5087190;28;20241;-78